KJMS

Jamestown Regional Airport

Jamestown, North Dakota, USA
METAR KJMS 140356Z AUTO 19005KT 10SM CLR M08/M09 A3022 RMK AO2 SLP267 T10781094
Observed Flight Rules
Nov-14 @ 03:56 UTC (53 minutes ago) Visual Flight Rules
Wind Visibility Clouds
190° at 5 knots 10 miles
  • Clear skies
Temperatures Readings
Current -8°C / 18°F
Dewpoint -9°C / 16°F
Humidity 93%
Altimeter 30.22" Hg
Pressure 1026.7 hPa
Elevation 455
METAR KJMS 140356Z AUTO 19005KT 10SM CLR M08/M09 A3022 RMK AO2 SLP267 T10781094
Observed Flight Rules
Nov-14 @ 03:56 UTC
(53 minutes ago)
VFR
Wind Visibility
190° at 5 knots 10 miles
Clouds
  • Clear skies
Temperature Dewpoint
-8°C / 18°F -9°C / 16°F
Humidity Altimeter Pressure
93% 30.22" Hg 1026.7 hPa